sensor_id;sensor_type;location;lat;lon;timestamp;P1;durP1;ratioP1;P2;durP2;ratioP2
38785;SDS011;24535;45.508;12.252;2022-08-21T00:01:51;4.28;;;2.47;;
38785;SDS011;24535;45.508;12.252;2022-08-21T00:04:17;3.35;;;1.95;;
38785;SDS011;24535;45.508;12.252;2022-08-21T00:06:43;6.45;;;2.83;;
38785;SDS011;24535;45.508;12.252;2022-08-21T00:09:08;5.75;;;2.28;;
38785;SDS011;24535;45.508;12.252;2022-08-21T00:11:35;6.22;;;3.00;;
38785;SDS011;24535;45.508;12.252;2022-08-21T00:14:02;5.40;;;2.67;;
38785;SDS011;24535;45.508;12.252;2022-08-21T00:16:29;4.03;;;2.65;;
38785;SDS011;24535;45.508;12.252;2022-08-21T00:18:55;4.50;;;2.42;;
38785;SDS011;24535;45.508;12.252;2022-08-21T00:21:20;4.82;;;2.60;;
38785;SDS011;24535;45.508;12.252;2022-08-21T00:23:47;3.83;;;2.25;;
38785;SDS011;24535;45.508;12.252;2022-08-21T00:26:12;5.05;;;2.63;;
38785;SDS011;24535;45.508;12.252;2022-08-21T00:28:38;3.70;;;2.47;;
38785;SDS011;24535;45.508;12.252;2022-08-21T00:31:04;6.28;;;3.20;;
38785;SDS011;24535;45.508;12.252;2022-08-21T00:33:30;4.90;;;2.30;;
38785;SDS011;24535;45.508;12.252;2022-08-21T00:36:05;4.68;;;2.10;;
38785;SDS011;24535;45.508;12.252;2022-08-21T00:38:30;5.15;;;2.65;;
38785;SDS011;24535;45.508;12.252;2022-08-21T00:40:58;4.93;;;2.72;;
38785;SDS011;24535;45.508;12.252;2022-08-21T00:43:27;6.38;;;2.67;;
38785;SDS011;24535;45.508;12.252;2022-08-21T00:45:55;7.47;;;2.70;;
38785;SDS011;24535;45.508;12.252;2022-08-21T00:51:19;3.58;;;2.00;;
38785;SDS011;24535;45.508;12.252;2022-08-21T00:53:52;5.72;;;2.05;;
38785;SDS011;24535;45.508;12.252;2022-08-21T00:56:21;4.10;;;2.10;;
38785;SDS011;24535;45.508;12.252;2022-08-21T00:58:48;3.97;;;1.80;;
38785;SDS011;24535;45.508;12.252;2022-08-21T01:01:15;5.75;;;2.00;;
38785;SDS011;24535;45.508;12.252;2022-08-21T01:03:43;7.05;;;1.95;;
38785;SDS011;24535;45.508;12.252;2022-08-21T01:06:10;5.80;;;2.40;;
38785;SDS011;24535;45.508;12.252;2022-08-21T01:08:35;4.85;;;2.55;;
38785;SDS011;24535;45.508;12.252;2022-08-21T01:11:01;6.13;;;1.92;;
38785;SDS011;24535;45.508;12.252;2022-08-21T01:13:29;4.80;;;1.90;;
38785;SDS011;24535;45.508;12.252;2022-08-21T01:15:56;4.20;;;1.83;;
38785;SDS011;24535;45.508;12.252;2022-08-21T01:18:24;3.65;;;2.00;;
38785;SDS011;24535;45.508;12.252;2022-08-21T01:23:25;3.53;;;2.00;;
38785;SDS011;24535;45.508;12.252;2022-08-21T01:26:06;1.88;;;1.42;;
38785;SDS011;24535;45.508;12.252;2022-08-21T01:28:34;2.75;;;1.88;;
38785;SDS011;24535;45.508;12.252;2022-08-21T01:31:05;3.25;;;1.42;;
38785;SDS011;24535;45.508;12.252;2022-08-21T01:33:32;3.38;;;1.95;;
38785;SDS011;24535;45.508;12.252;2022-08-21T01:35:58;3.58;;;2.30;;
38785;SDS011;24535;45.508;12.252;2022-08-21T01:38:26;6.47;;;1.75;;
38785;SDS011;24535;45.508;12.252;2022-08-21T01:40:55;3.50;;;1.65;;
38785;SDS011;24535;45.508;12.252;2022-08-21T01:43:21;3.65;;;1.55;;
38785;SDS011;24535;45.508;12.252;2022-08-21T01:46:04;2.08;;;1.63;;
38785;SDS011;24535;45.508;12.252;2022-08-21T01:48:29;4.80;;;2.00;;
38785;SDS011;24535;45.508;12.252;2022-08-21T01:51:01;3.58;;;1.80;;
38785;SDS011;24535;45.508;12.252;2022-08-21T01:53:27;3.78;;;1.90;;
38785;SDS011;24535;45.508;12.252;2022-08-21T01:55:52;2.90;;;1.73;;
38785;SDS011;24535;45.508;12.252;2022-08-21T01:58:18;5.50;;;2.10;;
38785;SDS011;24535;45.508;12.252;2022-08-21T02:00:44;4.38;;;2.20;;
38785;SDS011;24535;45.508;12.252;2022-08-21T02:03:09;3.88;;;1.75;;
38785;SDS011;24535;45.508;12.252;2022-08-21T02:05:41;4.75;;;1.77;;
38785;SDS011;24535;45.508;12.252;2022-08-21T02:08:06;5.65;;;1.80;;
38785;SDS011;24535;45.508;12.252;2022-08-21T02:10:32;4.85;;;1.42;;
38785;SDS011;24535;45.508;12.252;2022-08-21T02:12:58;2.67;;;2.20;;
38785;SDS011;24535;45.508;12.252;2022-08-21T02:15:25;3.15;;;2.15;;
38785;SDS011;24535;45.508;12.252;2022-08-21T02:17:53;3.88;;;2.33;;
38785;SDS011;24535;45.508;12.252;2022-08-21T02:20:21;5.22;;;2.80;;
38785;SDS011;24535;45.508;12.252;2022-08-21T02:22:59;3.50;;;1.80;;
38785;SDS011;24535;45.508;12.252;2022-08-21T02:25:25;4.20;;;1.65;;
38785;SDS011;24535;45.508;12.252;2022-08-21T02:27:52;3.53;;;1.88;;
38785;SDS011;24535;45.508;12.252;2022-08-21T02:30:29;5.45;;;1.65;;
38785;SDS011;24535;45.508;12.252;2022-08-21T02:32:58;5.93;;;2.17;;
38785;SDS011;24535;45.508;12.252;2022-08-21T02:35:24;4.50;;;2.05;;
38785;SDS011;24535;45.508;12.252;2022-08-21T02:37:58;2.38;;;2.13;;
38785;SDS011;24535;45.508;12.252;2022-08-21T02:40:37;5.43;;;2.53;;
38785;SDS011;24535;45.508;12.252;2022-08-21T02:43:05;5.50;;;3.00;;
38785;SDS011;24535;45.508;12.252;2022-08-21T02:45:31;3.95;;;2.83;;
38785;SDS011;24535;45.508;12.252;2022-08-21T02:47:59;6.93;;;3.40;;
38785;SDS011;24535;45.508;12.252;2022-08-21T02:50:31;4.30;;;2.33;;
38785;SDS011;24535;45.508;12.252;2022-08-21T02:53:03;3.45;;;2.35;;
38785;SDS011;24535;45.508;12.252;2022-08-21T02:55:31;6.68;;;2.65;;
38785;SDS011;24535;45.508;12.252;2022-08-21T02:57:59;4.38;;;1.90;;
38785;SDS011;24535;45.508;12.252;2022-08-21T03:00:25;2.75;;;2.10;;
38785;SDS011;24535;45.508;12.252;2022-08-21T03:02:54;3.00;;;1.73;;
38785;SDS011;24535;45.508;12.252;2022-08-21T03:05:21;3.38;;;1.95;;
38785;SDS011;24535;45.508;12.252;2022-08-21T03:07:48;3.80;;;1.90;;
38785;SDS011;24535;45.508;12.252;2022-08-21T03:10:14;4.25;;;1.80;;
38785;SDS011;24535;45.508;12.252;2022-08-21T03:12:41;2.90;;;1.70;;
38785;SDS011;24535;45.508;12.252;2022-08-21T03:15:08;3.25;;;2.00;;
38785;SDS011;24535;45.508;12.252;2022-08-21T03:17:36;3.20;;;2.25;;
38785;SDS011;24535;45.508;12.252;2022-08-21T03:20:04;3.67;;;2.47;;
38785;SDS011;24535;45.508;12.252;2022-08-21T03:22:33;5.45;;;2.63;;
38785;SDS011;24535;45.508;12.252;2022-08-21T03:24:59;4.55;;;1.98;;
38785;SDS011;24535;45.508;12.252;2022-08-21T03:27:25;4.40;;;1.98;;
38785;SDS011;24535;45.508;12.252;2022-08-21T03:29:53;3.08;;;2.05;;
38785;SDS011;24535;45.508;12.252;2022-08-21T03:32:18;2.97;;;1.65;;
38785;SDS011;24535;45.508;12.252;2022-08-21T03:34:44;2.47;;;1.75;;
38785;SDS011;24535;45.508;12.252;2022-08-21T03:37:16;3.83;;;2.13;;
38785;SDS011;24535;45.508;12.252;2022-08-21T03:39:42;4.70;;;1.80;;
38785;SDS011;24535;45.508;12.252;2022-08-21T03:42:08;2.22;;;1.58;;
38785;SDS011;24535;45.508;12.252;2022-08-21T03:44:34;4.03;;;2.33;;
38785;SDS011;24535;45.508;12.252;2022-08-21T03:47:00;5.68;;;2.35;;
38785;SDS011;24535;45.508;12.252;2022-08-21T03:49:26;3.38;;;1.92;;
38785;SDS011;24535;45.508;12.252;2022-08-21T03:51:52;6.95;;;2.08;;
38785;SDS011;24535;45.508;12.252;2022-08-21T03:54:17;5.85;;;2.17;;
38785;SDS011;24535;45.508;12.252;2022-08-21T03:56:43;3.30;;;2.28;;
38785;SDS011;24535;45.508;12.252;2022-08-21T03:59:08;2.90;;;1.95;;
38785;SDS011;24535;45.508;12.252;2022-08-21T04:01:34;3.67;;;1.80;;
38785;SDS011;24535;45.508;12.252;2022-08-21T04:03:59;7.82;;;2.15;;
38785;SDS011;24535;45.508;12.252;2022-08-21T04:06:25;3.15;;;1.90;;
38785;SDS011;24535;45.508;12.252;2022-08-21T04:08:51;4.90;;;1.63;;
38785;SDS011;24535;45.508;12.252;2022-08-21T04:11:17;6.57;;;2.70;;
38785;SDS011;24535;45.508;12.252;2022-08-21T04:13:43;7.10;;;2.65;;
38785;SDS011;24535;45.508;12.252;2022-08-21T04:16:10;7.88;;;2.17;;
38785;SDS011;24535;45.508;12.252;2022-08-21T04:18:35;6.65;;;2.80;;
38785;SDS011;24535;45.508;12.252;2022-08-21T04:21:01;3.10;;;1.70;;
38785;SDS011;24535;45.508;12.252;2022-08-21T04:23:28;3.80;;;2.22;;
38785;SDS011;24535;45.508;12.252;2022-08-21T04:25:54;4.47;;;2.38;;
38785;SDS011;24535;45.508;12.252;2022-08-21T04:28:21;6.75;;;2.83;;
38785;SDS011;24535;45.508;12.252;2022-08-21T04:30:47;4.30;;;2.25;;
38785;SDS011;24535;45.508;12.252;2022-08-21T04:33:12;7.15;;;2.72;;
38785;SDS011;24535;45.508;12.252;2022-08-21T04:35:38;5.97;;;2.60;;
38785;SDS011;24535;45.508;12.252;2022-08-21T04:38:03;8.25;;;2.63;;
38785;SDS011;24535;45.508;12.252;2022-08-21T04:40:29;4.78;;;2.25;;
38785;SDS011;24535;45.508;12.252;2022-08-21T04:42:56;5.88;;;3.13;;
38785;SDS011;24535;45.508;12.252;2022-08-21T04:45:28;4.53;;;2.80;;
38785;SDS011;24535;45.508;12.252;2022-08-21T04:48:00;3.88;;;2.58;;
38785;SDS011;24535;45.508;12.252;2022-08-21T04:50:29;5.55;;;2.83;;
38785;SDS011;24535;45.508;12.252;2022-08-21T04:52:55;3.88;;;2.58;;
38785;SDS011;24535;45.508;12.252;2022-08-21T04:55:21;2.55;;;1.83;;
38785;SDS011;24535;45.508;12.252;2022-08-21T04:57:49;7.38;;;2.42;;
38785;SDS011;24535;45.508;12.252;2022-08-21T05:00:16;3.92;;;2.58;;
38785;SDS011;24535;45.508;12.252;2022-08-21T05:02:43;3.20;;;2.70;;
38785;SDS011;24535;45.508;12.252;2022-08-21T05:05:09;5.65;;;3.13;;
38785;SDS011;24535;45.508;12.252;2022-08-21T05:07:35;4.28;;;2.42;;
38785;SDS011;24535;45.508;12.252;2022-08-21T05:10:02;4.25;;;3.28;;
38785;SDS011;24535;45.508;12.252;2022-08-21T05:12:30;4.35;;;2.90;;
38785;SDS011;24535;45.508;12.252;2022-08-21T05:14:59;6.43;;;2.78;;
38785;SDS011;24535;45.508;12.252;2022-08-21T05:17:24;6.85;;;3.20;;
38785;SDS011;24535;45.508;12.252;2022-08-21T05:19:49;6.20;;;3.25;;
38785;SDS011;24535;45.508;12.252;2022-08-21T05:22:19;4.20;;;3.28;;
38785;SDS011;24535;45.508;12.252;2022-08-21T05:24:46;2.78;;;2.03;;
38785;SDS011;24535;45.508;12.252;2022-08-21T05:27:11;5.25;;;2.90;;
38785;SDS011;24535;45.508;12.252;2022-08-21T05:29:37;5.18;;;2.50;;
38785;SDS011;24535;45.508;12.252;2022-08-21T05:32:07;6.10;;;2.80;;
38785;SDS011;24535;45.508;12.252;2022-08-21T05:34:37;3.35;;;2.88;;
38785;SDS011;24535;45.508;12.252;2022-08-21T05:37:03;3.92;;;2.53;;
38785;SDS011;24535;45.508;12.252;2022-08-21T05:39:29;4.90;;;2.65;;
38785;SDS011;24535;45.508;12.252;2022-08-21T05:41:54;3.80;;;2.85;;
38785;SDS011;24535;45.508;12.252;2022-08-21T05:44:19;4.72;;;2.22;;
38785;SDS011;24535;45.508;12.252;2022-08-21T05:46:47;3.30;;;2.13;;
38785;SDS011;24535;45.508;12.252;2022-08-21T05:49:13;3.00;;;2.50;;
38785;SDS011;24535;45.508;12.252;2022-08-21T05:51:41;4.30;;;2.58;;
38785;SDS011;24535;45.508;12.252;2022-08-21T05:54:06;6.82;;;2.72;;
38785;SDS011;24535;45.508;12.252;2022-08-21T05:56:32;4.43;;;2.25;;
38785;SDS011;24535;45.508;12.252;2022-08-21T05:58:58;5.05;;;2.58;;
38785;SDS011;24535;45.508;12.252;2022-08-21T06:01:23;3.30;;;2.00;;
38785;SDS011;24535;45.508;12.252;2022-08-21T06:03:49;6.97;;;2.05;;
38785;SDS011;24535;45.508;12.252;2022-08-21T06:06:15;4.70;;;2.10;;
38785;SDS011;24535;45.508;12.252;2022-08-21T06:08:40;5.30;;;2.13;;
38785;SDS011;24535;45.508;12.252;2022-08-21T06:11:06;5.50;;;2.33;;
38785;SDS011;24535;45.508;12.252;2022-08-21T06:13:32;2.47;;;2.00;;
38785;SDS011;24535;45.508;12.252;2022-08-21T06:18:34;5.07;;;1.95;;
38785;SDS011;24535;45.508;12.252;2022-08-21T06:21:00;3.38;;;2.55;;
38785;SDS011;24535;45.508;12.252;2022-08-21T06:23:26;4.15;;;2.00;;
38785;SDS011;24535;45.508;12.252;2022-08-21T06:25:53;2.85;;;2.40;;
38785;SDS011;24535;45.508;12.252;2022-08-21T06:28:19;4.03;;;2.10;;
38785;SDS011;24535;45.508;12.252;2022-08-21T06:30:44;4.15;;;2.15;;
38785;SDS011;24535;45.508;12.252;2022-08-21T06:33:10;3.55;;;2.22;;
38785;SDS011;24535;45.508;12.252;2022-08-21T06:35:35;5.45;;;2.38;;
38785;SDS011;24535;45.508;12.252;2022-08-21T06:38:01;5.43;;;3.00;;
38785;SDS011;24535;45.508;12.252;2022-08-21T06:40:27;4.75;;;3.50;;
38785;SDS011;24535;45.508;12.252;2022-08-21T06:42:53;6.85;;;3.92;;
38785;SDS011;24535;45.508;12.252;2022-08-21T06:45:19;3.65;;;2.67;;
38785;SDS011;24535;45.508;12.252;2022-08-21T06:47:45;4.82;;;3.47;;
38785;SDS011;24535;45.508;12.252;2022-08-21T06:50:13;3.95;;;2.88;;
38785;SDS011;24535;45.508;12.252;2022-08-21T06:52:39;4.45;;;2.40;;
38785;SDS011;24535;45.508;12.252;2022-08-21T06:55:05;4.47;;;2.42;;
38785;SDS011;24535;45.508;12.252;2022-08-21T06:57:32;5.22;;;1.63;;
38785;SDS011;24535;45.508;12.252;2022-08-21T06:59:58;4.00;;;1.83;;
38785;SDS011;24535;45.508;12.252;2022-08-21T07:02:23;2.00;;;1.40;;
38785;SDS011;24535;45.508;12.252;2022-08-21T07:04:49;1.98;;;1.52;;
38785;SDS011;24535;45.508;12.252;2022-08-21T07:07:15;4.35;;;2.88;;
38785;SDS011;24535;45.508;12.252;2022-08-21T07:09:42;5.28;;;2.63;;
38785;SDS011;24535;45.508;12.252;2022-08-21T07:12:08;3.42;;;1.98;;
38785;SDS011;24535;45.508;12.252;2022-08-21T07:14:34;7.15;;;2.65;;
38785;SDS011;24535;45.508;12.252;2022-08-21T07:17:00;3.25;;;2.50;;
38785;SDS011;24535;45.508;12.252;2022-08-21T07:19:26;5.35;;;2.88;;
38785;SDS011;24535;45.508;12.252;2022-08-21T07:21:56;5.10;;;2.60;;
38785;SDS011;24535;45.508;12.252;2022-08-21T07:24:25;4.68;;;2.78;;
38785;SDS011;24535;45.508;12.252;2022-08-21T07:26:50;4.53;;;2.65;;
38785;SDS011;24535;45.508;12.252;2022-08-21T07:29:19;5.43;;;2.25;;
38785;SDS011;24535;45.508;12.252;2022-08-21T07:31:44;2.05;;;1.77;;
38785;SDS011;24535;45.508;12.252;2022-08-21T07:34:10;3.92;;;1.92;;
38785;SDS011;24535;45.508;12.252;2022-08-21T07:36:35;2.50;;;1.50;;
38785;SDS011;24535;45.508;12.252;2022-08-21T07:39:04;3.10;;;1.95;;
38785;SDS011;24535;45.508;12.252;2022-08-21T07:41:30;2.30;;;1.17;;
38785;SDS011;24535;45.508;12.252;2022-08-21T07:43:57;2.75;;;1.58;;
38785;SDS011;24535;45.508;12.252;2022-08-21T07:46:24;2.20;;;0.98;;
38785;SDS011;24535;45.508;12.252;2022-08-21T07:48:50;1.90;;;1.30;;
38785;SDS011;24535;45.508;12.252;2022-08-21T07:51:16;3.28;;;1.00;;
38785;SDS011;24535;45.508;12.252;2022-08-21T07:53:50;2.88;;;1.17;;
38785;SDS011;24535;45.508;12.252;2022-08-21T07:56:17;1.52;;;0.90;;
38785;SDS011;24535;45.508;12.252;2022-08-21T07:58:43;6.43;;;1.40;;
38785;SDS011;24535;45.508;12.252;2022-08-21T08:01:08;2.20;;;1.35;;
38785;SDS011;24535;45.508;12.252;2022-08-21T08:03:34;2.15;;;0.85;;
38785;SDS011;24535;45.508;12.252;2022-08-21T08:06:00;1.30;;;1.08;;
38785;SDS011;24535;45.508;12.252;2022-08-21T08:08:26;1.10;;;0.82;;
38785;SDS011;24535;45.508;12.252;2022-08-21T08:10:52;1.58;;;0.75;;
38785;SDS011;24535;45.508;12.252;2022-08-21T08:13:18;3.70;;;0.77;;
38785;SDS011;24535;45.508;12.252;2022-08-21T08:15:44;2.20;;;1.02;;
38785;SDS011;24535;45.508;12.252;2022-08-21T08:18:10;3.53;;;0.88;;
38785;SDS011;24535;45.508;12.252;2022-08-21T08:20:35;2.45;;;1.17;;
38785;SDS011;24535;45.508;12.252;2022-08-21T08:23:01;1.88;;;1.20;;
38785;SDS011;24535;45.508;12.252;2022-08-21T08:25:27;3.53;;;1.45;;
38785;SDS011;24535;45.508;12.252;2022-08-21T08:27:52;2.42;;;0.98;;
38785;SDS011;24535;45.508;12.252;2022-08-21T08:30:19;1.05;;;0.73;;
38785;SDS011;24535;45.508;12.252;2022-08-21T08:32:46;1.73;;;1.00;;
38785;SDS011;24535;45.508;12.252;2022-08-21T08:35:12;1.52;;;0.65;;
38785;SDS011;24535;45.508;12.252;2022-08-21T08:37:38;2.50;;;0.65;;
38785;SDS011;24535;45.508;12.252;2022-08-21T08:45:13;1.30;;;0.60;;
38785;SDS011;24535;45.508;12.252;2022-08-21T08:47:43;1.65;;;0.77;;
38785;SDS011;24535;45.508;12.252;2022-08-21T08:50:23;0.47;;;0.43;;
38785;SDS011;24535;45.508;12.252;2022-08-21T08:53:12;1.05;;;0.90;;
38785;SDS011;24535;45.508;12.252;2022-08-21T08:55:45;2.03;;;0.90;;
38785;SDS011;24535;45.508;12.252;2022-08-21T08:58:24;1.58;;;0.77;;
38785;SDS011;24535;45.508;12.252;2022-08-21T09:00:52;1.42;;;0.80;;
38785;SDS011;24535;45.508;12.252;2022-08-21T09:03:20;2.03;;;1.05;;
38785;SDS011;24535;45.508;12.252;2022-08-21T09:05:49;1.40;;;0.77;;
38785;SDS011;24535;45.508;12.252;2022-08-21T09:11:41;2.50;;;0.88;;
38785;SDS011;24535;45.508;12.252;2022-08-21T09:19:48;2.33;;;0.82;;
38785;SDS011;24535;45.508;12.252;2022-08-21T09:28:43;1.67;;;0.95;;
38785;SDS011;24535;45.508;12.252;2022-08-21T09:34:23;1.42;;;1.00;;
38785;SDS011;24535;45.508;12.252;2022-08-21T09:36:50;2.63;;;0.60;;
38785;SDS011;24535;45.508;12.252;2022-08-21T09:39:26;2.22;;;0.75;;
38785;SDS011;24535;45.508;12.252;2022-08-21T09:41:55;1.50;;;0.70;;
38785;SDS011;24535;45.508;12.252;2022-08-21T09:44:29;2.90;;;0.90;;
38785;SDS011;24535;45.508;12.252;2022-08-21T09:46:57;1.98;;;1.00;;
38785;SDS011;24535;45.508;12.252;2022-08-21T09:49:41;1.20;;;0.82;;
38785;SDS011;24535;45.508;12.252;2022-08-21T09:52:20;1.80;;;0.88;;
38785;SDS011;24535;45.508;12.252;2022-08-21T09:54:49;2.20;;;1.35;;
38785;SDS011;24535;45.508;12.252;2022-08-21T09:57:25;3.67;;;0.90;;
38785;SDS011;24535;45.508;12.252;2022-08-21T10:00:47;2.35;;;1.30;;
38785;SDS011;24535;45.508;12.252;2022-08-21T10:03:11;3.30;;;1.25;;
38785;SDS011;24535;45.508;12.252;2022-08-21T10:05:38;2.97;;;1.50;;
38785;SDS011;24535;45.508;12.252;2022-08-21T10:08:04;2.85;;;1.38;;
38785;SDS011;24535;45.508;12.252;2022-08-21T10:10:38;2.10;;;1.02;;
38785;SDS011;24535;45.508;12.252;2022-08-21T10:21:22;2.47;;;1.40;;
38785;SDS011;24535;45.508;12.252;2022-08-21T10:32:37;6.30;;;1.63;;
38785;SDS011;24535;45.508;12.252;2022-08-21T10:38:43;4.32;;;1.40;;
38785;SDS011;24535;45.508;12.252;2022-08-21T10:43:54;2.55;;;1.27;;
38785;SDS011;24535;45.508;12.252;2022-08-21T10:57:41;2.42;;;1.40;;
38785;SDS011;24535;45.508;12.252;2022-08-21T11:00:14;6.05;;;1.23;;
38785;SDS011;24535;45.508;12.252;2022-08-21T11:02:45;2.78;;;1.13;;
38785;SDS011;24535;45.508;12.252;2022-08-21T11:05:24;4.97;;;1.30;;
38785;SDS011;24535;45.508;12.252;2022-08-21T11:07:57;4.63;;;1.70;;
38785;SDS011;24535;45.508;12.252;2022-08-21T11:10:50;3.15;;;1.27;;
38785;SDS011;24535;45.508;12.252;2022-08-21T11:13:32;4.10;;;1.30;;
38785;SDS011;24535;45.508;12.252;2022-08-21T11:16:09;3.05;;;1.30;;
38785;SDS011;24535;45.508;12.252;2022-08-21T11:27:21;3.17;;;1.10;;
38785;SDS011;24535;45.508;12.252;2022-08-21T11:29:59;2.50;;;1.17;;
38785;SDS011;24535;45.508;12.252;2022-08-21T11:38:42;3.47;;;1.63;;
38785;SDS011;24535;45.508;12.252;2022-08-21T11:44:15;2.38;;;1.38;;
38785;SDS011;24535;45.508;12.252;2022-08-21T11:46:58;1.90;;;1.23;;
38785;SDS011;24535;45.508;12.252;2022-08-21T12:00:16;2.75;;;1.27;;
38785;SDS011;24535;45.508;12.252;2022-08-21T12:02:45;1.92;;;1.35;;
38785;SDS011;24535;45.508;12.252;2022-08-21T12:05:33;1.80;;;0.93;;
38785;SDS011;24535;45.508;12.252;2022-08-21T12:10:37;3.00;;;1.05;;
38785;SDS011;24535;45.508;12.252;2022-08-21T12:13:07;2.17;;;1.27;;
38785;SDS011;24535;45.508;12.252;2022-08-21T12:15:46;1.63;;;1.02;;
38785;SDS011;24535;45.508;12.252;2022-08-21T12:18:45;3.17;;;1.05;;
38785;SDS011;24535;45.508;12.252;2022-08-21T12:21:15;6.43;;;1.05;;
38785;SDS011;24535;45.508;12.252;2022-08-21T12:23:48;2.30;;;0.90;;
38785;SDS011;24535;45.508;12.252;2022-08-21T12:26:22;5.15;;;1.30;;
38785;SDS011;24535;45.508;12.252;2022-08-21T12:28:51;2.35;;;1.00;;
38785;SDS011;24535;45.508;12.252;2022-08-21T12:31:27;2.80;;;1.13;;
38785;SDS011;24535;45.508;12.252;2022-08-21T12:33:54;3.05;;;1.60;;
38785;SDS011;24535;45.508;12.252;2022-08-21T12:37:18;2.45;;;1.08;;
38785;SDS011;24535;45.508;12.252;2022-08-21T12:39:22;2.53;;;1.00;;
38785;SDS011;24535;45.508;12.252;2022-08-21T12:41:59;5.88;;;1.13;;
38785;SDS011;24535;45.508;12.252;2022-08-21T12:47:34;2.53;;;1.23;;
38785;SDS011;24535;45.508;12.252;2022-08-21T12:50:20;2.72;;;1.20;;
38785;SDS011;24535;45.508;12.252;2022-08-21T12:52:56;3.63;;;1.42;;
38785;SDS011;24535;45.508;12.252;2022-08-21T12:55:30;2.60;;;1.10;;
38785;SDS011;24535;45.508;12.252;2022-08-21T12:57:57;5.05;;;2.47;;
38785;SDS011;24535;45.508;12.252;2022-08-21T13:00:24;2.78;;;1.40;;
38785;SDS011;24535;45.508;12.252;2022-08-21T13:02:52;4.55;;;1.55;;
38785;SDS011;24535;45.508;12.252;2022-08-21T13:08:05;2.38;;;1.20;;
38785;SDS011;24535;45.508;12.252;2022-08-21T13:10:33;2.67;;;1.13;;
38785;SDS011;24535;45.508;12.252;2022-08-21T13:13:02;5.93;;;1.33;;
38785;SDS011;24535;45.508;12.252;2022-08-21T13:15:33;2.25;;;0.95;;
38785;SDS011;24535;45.508;12.252;2022-08-21T13:18:03;2.13;;;0.95;;
38785;SDS011;24535;45.508;12.252;2022-08-21T13:22:58;4.32;;;0.93;;
38785;SDS011;24535;45.508;12.252;2022-08-21T13:25:26;1.88;;;1.05;;
38785;SDS011;24535;45.508;12.252;2022-08-21T13:28:05;6.32;;;1.00;;
38785;SDS011;24535;45.508;12.252;2022-08-21T13:30:42;2.65;;;1.02;;
38785;SDS011;24535;45.508;12.252;2022-08-21T13:33:19;1.70;;;0.82;;
38785;SDS011;24535;45.508;12.252;2022-08-21T13:35:57;3.13;;;0.80;;
38785;SDS011;24535;45.508;12.252;2022-08-21T13:38:30;5.85;;;1.10;;
38785;SDS011;24535;45.508;12.252;2022-08-21T13:40:59;3.33;;;1.17;;
38785;SDS011;24535;45.508;12.252;2022-08-21T13:43:31;2.92;;;1.00;;
38785;SDS011;24535;45.508;12.252;2022-08-21T13:46:06;1.70;;;0.82;;
38785;SDS011;24535;45.508;12.252;2022-08-21T13:48:35;5.03;;;1.05;;
38785;SDS011;24535;45.508;12.252;2022-08-21T13:51:01;3.67;;;0.82;;
38785;SDS011;24535;45.508;12.252;2022-08-21T13:53:31;5.68;;;1.27;;
38785;SDS011;24535;45.508;12.252;2022-08-21T13:59:08;3.50;;;0.95;;
38785;SDS011;24535;45.508;12.252;2022-08-21T14:01:55;3.70;;;1.13;;
38785;SDS011;24535;45.508;12.252;2022-08-21T14:04:35;2.78;;;1.13;;
38785;SDS011;24535;45.508;12.252;2022-08-21T14:07:19;2.35;;;0.93;;
38785;SDS011;24535;45.508;12.252;2022-08-21T14:09:50;3.60;;;1.00;;
38785;SDS011;24535;45.508;12.252;2022-08-21T14:12:24;3.83;;;1.10;;
38785;SDS011;24535;45.508;12.252;2022-08-21T14:15:01;1.45;;;0.98;;
38785;SDS011;24535;45.508;12.252;2022-08-21T14:17:34;2.45;;;0.73;;
38785;SDS011;24535;45.508;12.252;2022-08-21T14:20:02;3.80;;;1.13;;
38785;SDS011;24535;45.508;12.252;2022-08-21T14:22:41;3.20;;;1.17;;
38785;SDS011;24535;45.508;12.252;2022-08-21T14:25:13;3.08;;;1.13;;
38785;SDS011;24535;45.508;12.252;2022-08-21T14:28:03;6.95;;;0.77;;
38785;SDS011;24535;45.508;12.252;2022-08-21T14:30:37;1.45;;;0.70;;
38785;SDS011;24535;45.508;12.252;2022-08-21T14:33:08;1.52;;;0.70;;
38785;SDS011;24535;45.508;12.252;2022-08-21T14:35:43;1.80;;;0.77;;
38785;SDS011;24535;45.508;12.252;2022-08-21T14:38:13;2.63;;;0.95;;
38785;SDS011;24535;45.508;12.252;2022-08-21T14:41:08;1.90;;;0.80;;
38785;SDS011;24535;45.508;12.252;2022-08-21T14:43:37;2.20;;;0.93;;
38785;SDS011;24535;45.508;12.252;2022-08-21T14:46:02;1.85;;;0.70;;
38785;SDS011;24535;45.508;12.252;2022-08-21T14:48:28;2.80;;;0.93;;
38785;SDS011;24535;45.508;12.252;2022-08-21T14:50:53;2.30;;;0.90;;
38785;SDS011;24535;45.508;12.252;2022-08-21T14:53:19;2.53;;;0.88;;
38785;SDS011;24535;45.508;12.252;2022-08-21T14:55:44;4.43;;;0.82;;
38785;SDS011;24535;45.508;12.252;2022-08-21T14:58:34;3.83;;;1.02;;
38785;SDS011;24535;45.508;12.252;2022-08-21T15:01:06;3.88;;;0.80;;
38785;SDS011;24535;45.508;12.252;2022-08-21T15:03:33;1.02;;;0.60;;
38785;SDS011;24535;45.508;12.252;2022-08-21T15:05:59;5.80;;;0.77;;
38785;SDS011;24535;45.508;12.252;2022-08-21T15:08:25;1.60;;;0.65;;
38785;SDS011;24535;45.508;12.252;2022-08-21T15:10:51;1.52;;;0.80;;
38785;SDS011;24535;45.508;12.252;2022-08-21T15:13:18;3.78;;;0.70;;
38785;SDS011;24535;45.508;12.252;2022-08-21T15:15:45;2.15;;;0.88;;
38785;SDS011;24535;45.508;12.252;2022-08-21T15:18:12;1.50;;;0.80;;
38785;SDS011;24535;45.508;12.252;2022-08-21T15:20:38;1.77;;;0.77;;
38785;SDS011;24535;45.508;12.252;2022-08-21T15:23:05;2.17;;;0.93;;
38785;SDS011;24535;45.508;12.252;2022-08-21T15:25:32;1.70;;;0.90;;
38785;SDS011;24535;45.508;12.252;2022-08-21T15:27:58;2.80;;;0.98;;
38785;SDS011;24535;45.508;12.252;2022-08-21T15:30:25;5.65;;;1.25;;
38785;SDS011;24535;45.508;12.252;2022-08-21T15:32:51;1.75;;;0.70;;
38785;SDS011;24535;45.508;12.252;2022-08-21T15:35:17;2.47;;;0.60;;
38785;SDS011;24535;45.508;12.252;2022-08-21T15:37:43;2.90;;;0.90;;
38785;SDS011;24535;45.508;12.252;2022-08-21T15:40:08;2.65;;;0.98;;
38785;SDS011;24535;45.508;12.252;2022-08-21T15:42:34;4.85;;;0.95;;
38785;SDS011;24535;45.508;12.252;2022-08-21T15:45:02;1.85;;;0.60;;
38785;SDS011;24535;45.508;12.252;2022-08-21T15:49:56;3.10;;;0.85;;
38785;SDS011;24535;45.508;12.252;2022-08-21T15:52:22;4.30;;;0.90;;
38785;SDS011;24535;45.508;12.252;2022-08-21T15:54:48;3.00;;;0.80;;
38785;SDS011;24535;45.508;12.252;2022-08-21T15:57:14;4.60;;;0.60;;
38785;SDS011;24535;45.508;12.252;2022-08-21T15:59:46;1.85;;;0.70;;
38785;SDS011;24535;45.508;12.252;2022-08-21T16:02:14;2.78;;;0.77;;
38785;SDS011;24535;45.508;12.252;2022-08-21T16:04:55;2.10;;;0.90;;
38785;SDS011;24535;45.508;12.252;2022-08-21T16:07:21;3.15;;;0.90;;
38785;SDS011;24535;45.508;12.252;2022-08-21T16:09:46;0.88;;;0.57;;
38785;SDS011;24535;45.508;12.252;2022-08-21T16:12:27;1.42;;;0.73;;
38785;SDS011;24535;45.508;12.252;2022-08-21T16:14:56;3.73;;;0.90;;
38785;SDS011;24535;45.508;12.252;2022-08-21T16:17:24;2.10;;;1.00;;
38785;SDS011;24535;45.508;12.252;2022-08-21T16:19:53;2.00;;;0.65;;
38785;SDS011;24535;45.508;12.252;2022-08-21T16:22:19;3.50;;;1.05;;
38785;SDS011;24535;45.508;12.252;2022-08-21T16:24:45;1.95;;;0.80;;
38785;SDS011;24535;45.508;12.252;2022-08-21T16:27:10;0.77;;;0.60;;
38785;SDS011;24535;45.508;12.252;2022-08-21T16:29:36;3.90;;;0.93;;
38785;SDS011;24535;45.508;12.252;2022-08-21T16:32:03;1.83;;;1.00;;
38785;SDS011;24535;45.508;12.252;2022-08-21T16:34:30;2.42;;;0.82;;
38785;SDS011;24535;45.508;12.252;2022-08-21T16:36:56;2.08;;;0.70;;